createdAt,value
2022-10-23T00:00:34.897Z,11.22
2022-10-23T00:03:36.978Z,11.18
2022-10-23T00:06:39.735Z,11.14
2022-10-23T00:09:41.699Z,11.10
2022-10-23T00:12:44.685Z,11.06
2022-10-23T00:15:46.888Z,11.02
2022-10-23T00:18:48.934Z,10.98
2022-10-23T00:21:51.441Z,10.95
2022-10-23T00:24:53.611Z,10.89
2022-10-23T00:27:55.584Z,10.88
2022-10-23T00:30:57.676Z,10.87
2022-10-23T00:33:59.800Z,10.87
2022-10-23T00:37:01.853Z,10.82
2022-10-23T00:40:05.025Z,10.86
2022-10-23T00:43:14.046Z,10.88
2022-10-23T00:46:15.963Z,10.89
2022-10-23T00:49:17.956Z,10.86
2022-10-23T00:52:19.946Z,10.78
2022-10-23T00:55:24.439Z,10.73
2022-10-23T00:58:26.583Z,10.71
2022-10-23T01:01:28.674Z,10.71
2022-10-23T01:04:32.121Z,10.69
2022-10-23T01:07:47.086Z,10.68
2022-10-23T01:11:03.562Z,10.67
2022-10-23T01:14:08.165Z,10.64
2022-10-23T01:17:18.244Z,10.63
2022-10-23T01:20:23.225Z,10.60
2022-10-23T01:23:55.584Z,10.54
2022-10-23T01:27:18.523Z,10.52
2022-10-23T01:30:20.729Z,10.52
2022-10-23T01:33:29.329Z,10.49
2022-10-23T01:36:34.404Z,10.46
2022-10-23T01:39:40.833Z,10.42
2022-10-23T01:42:50.595Z,10.40
2022-10-23T01:46:01.811Z,10.40
2022-10-23T01:49:08.064Z,10.37
2022-10-23T01:52:14.103Z,10.39
2022-10-23T01:55:17.571Z,10.36
2022-10-23T01:58:22.133Z,10.37
2022-10-23T02:01:27.984Z,10.34
2022-10-23T02:04:35.930Z,10.28
2022-10-23T02:07:38.082Z,10.23
2022-10-23T02:10:52.054Z,10.20
2022-10-23T02:14:07.556Z,10.18
2022-10-23T02:17:17.037Z,10.13
2022-10-23T02:20:35.922Z,10.12
2022-10-23T02:23:55.324Z,10.12
2022-10-23T02:27:02.736Z,10.09
2022-10-23T02:30:10.273Z,10.07
2022-10-23T02:33:13.667Z,10.01
2022-10-23T02:36:19.666Z,9.96
2022-10-23T02:39:24.672Z,9.93
2022-10-23T02:42:35.315Z,9.91
2022-10-23T02:46:03.723Z,9.85
2022-10-23T02:49:37.873Z,9.79
2022-10-23T02:53:10.525Z,9.76
2022-10-23T02:56:24.296Z,9.69
2022-10-23T02:59:35.721Z,9.65
2022-10-23T03:02:42.305Z,9.63
2022-10-23T03:05:47.670Z,9.62
2022-10-23T03:08:54.111Z,9.64
2022-10-23T03:11:56.044Z,9.60
2022-10-23T03:14:57.989Z,9.64
2022-10-23T03:18:00.045Z,9.67
2022-10-23T03:21:01.993Z,9.70
2022-10-23T03:24:04.177Z,9.67
2022-10-23T03:27:06.097Z,9.64
2022-10-23T03:30:08.728Z,9.68
2022-10-23T03:33:10.836Z,9.61
2022-10-23T03:36:12.977Z,9.58
2022-10-23T03:39:14.996Z,9.53
2022-10-23T03:42:17.121Z,9.50
2022-10-23T03:45:19.257Z,9.45
2022-10-23T03:48:21.353Z,9.42
2022-10-23T03:51:23.372Z,9.39
2022-10-23T03:54:26.906Z,9.34
2022-10-23T03:57:28.968Z,9.29
2022-10-23T04:00:31.055Z,9.25
2022-10-23T04:03:33.062Z,9.15
2022-10-23T04:06:35.413Z,9.07
2022-10-23T04:09:37.442Z,9.04
2022-10-23T04:12:39.713Z,9.01
2022-10-23T04:15:48.406Z,8.95
2022-10-23T04:18:50.602Z,8.87
2022-10-23T04:21:52.601Z,8.74
2022-10-23T04:24:54.565Z,8.60
2022-10-23T04:27:56.559Z,8.55
2022-10-23T04:30:58.578Z,8.41
2022-10-23T04:34:00.653Z,8.37
2022-10-23T04:37:02.710Z,8.34
2022-10-23T04:40:04.968Z,8.32
2022-10-23T04:43:13.352Z,8.29
2022-10-23T04:46:15.373Z,8.23
2022-10-23T04:49:17.387Z,8.16
2022-10-23T04:52:19.383Z,8.14
2022-10-23T04:55:21.481Z,8.13
2022-10-23T04:58:24.399Z,8.18
2022-10-23T05:01:26.531Z,8.18
2022-10-23T05:04:28.529Z,8.21
2022-10-23T05:07:30.528Z,8.12
2022-10-23T05:10:32.621Z,8.11
2022-10-23T05:13:35.522Z,8.10
2022-10-23T05:16:43.212Z,8.11
2022-10-23T05:19:53.106Z,8.09
2022-10-23T05:22:57.156Z,8.20
2022-10-23T05:25:59.888Z,8.23
2022-10-23T05:29:01.906Z,8.26
2022-10-23T05:32:06.877Z,8.30
2022-10-23T05:35:12.913Z,8.33
2022-10-23T05:38:15.669Z,8.35
2022-10-23T05:41:17.823Z,8.35
2022-10-23T05:44:19.914Z,8.36
2022-10-23T05:47:21.843Z,8.40
2022-10-23T05:50:23.992Z,8.45
2022-10-23T05:53:25.921Z,8.48
2022-10-23T05:56:27.948Z,8.46
2022-10-23T05:59:29.997Z,8.50
2022-10-23T06:02:33.042Z,8.56
2022-10-23T06:05:35.015Z,8.62
2022-10-23T06:08:37.157Z,8.66
2022-10-23T06:11:39.139Z,8.71
2022-10-23T06:14:41.097Z,8.80
2022-10-23T06:17:43.150Z,8.85
2022-10-23T06:20:45.232Z,8.96
2022-10-23T06:23:48.093Z,9.08
2022-10-23T06:26:50.058Z,9.20
2022-10-23T06:29:52.266Z,9.32
2022-10-23T06:32:54.157Z,9.42
2022-10-23T06:35:56.761Z,9.50
2022-10-23T06:42:01.686Z,9.65
2022-10-23T06:45:06.375Z,9.75
2022-10-23T06:48:09.149Z,9.90
2022-10-23T06:51:13.760Z,10.07
2022-10-23T06:54:15.725Z,10.25
2022-10-23T06:57:17.706Z,10.37
2022-10-23T07:00:21.644Z,10.40
2022-10-23T07:03:23.656Z,10.17
2022-10-23T07:06:25.568Z,10.33
2022-10-23T07:09:27.617Z,10.65
2022-10-23T07:12:29.715Z,10.77
2022-10-23T07:15:31.678Z,10.78
2022-10-23T07:21:40.495Z,10.79
2022-10-23T07:24:42.545Z,10.82
2022-10-23T07:27:44.771Z,10.89
2022-10-23T07:30:56.780Z,10.88
2022-10-23T07:33:59.026Z,10.92
2022-10-23T07:37:01.040Z,10.90
2022-10-23T07:40:07.433Z,11.04
2022-10-23T07:43:09.352Z,11.13
2022-10-23T07:46:11.333Z,11.17
2022-10-23T07:49:13.375Z,11.14
2022-10-23T07:52:15.330Z,11.25
2022-10-23T07:55:17.973Z,11.36
2022-10-23T07:58:20.245Z,11.51
2022-10-23T08:01:32.715Z,11.69
2022-10-23T08:04:34.901Z,12.01
2022-10-23T08:07:37.018Z,12.27
2022-10-23T08:10:41.626Z,12.43
2022-10-23T08:13:44.409Z,12.58
2022-10-23T08:16:46.765Z,12.74
2022-10-23T08:19:48.978Z,13.02
2022-10-23T08:22:51.677Z,13.16
2022-10-23T08:26:01.551Z,13.26
2022-10-23T08:29:03.536Z,13.32
2022-10-23T08:32:05.710Z,13.44
2022-10-23T08:35:07.961Z,13.63
2022-10-23T08:38:10.711Z,13.98
2022-10-23T08:41:25.153Z,14.17
2022-10-23T08:44:35.544Z,14.34
2022-10-23T08:47:51.084Z,14.57
2022-10-23T08:50:59.466Z,14.53
2022-10-23T08:54:22.989Z,14.63
2022-10-23T08:57:33.300Z,14.86
2022-10-23T09:00:35.691Z,15.02
2022-10-23T09:03:37.724Z,15.09
2022-10-23T09:06:41.980Z,14.51
2022-10-23T09:10:17.698Z,14.29
2022-10-23T09:13:45.444Z,14.22
2022-10-23T09:17:19.015Z,14.36
2022-10-23T09:20:24.210Z,14.36
2022-10-23T09:23:26.159Z,14.36
2022-10-23T09:26:28.121Z,14.31
2022-10-23T09:29:33.226Z,14.33
2022-10-23T09:32:37.751Z,14.37
2022-10-23T09:35:40.129Z,14.43
2022-10-23T09:38:45.335Z,14.50
2022-10-23T09:41:47.280Z,14.42
2022-10-23T09:44:52.270Z,14.47
2022-10-23T09:48:12.241Z,14.47
2022-10-23T09:51:21.869Z,14.34
2022-10-23T09:54:24.292Z,14.43
2022-10-23T09:57:32.442Z,14.49
2022-10-23T10:00:34.408Z,14.60
2022-10-23T10:03:37.634Z,14.67
2022-10-23T10:09:48.488Z,14.51
2022-10-23T10:12:58.404Z,14.53
2022-10-23T10:16:19.306Z,14.62
2022-10-23T10:20:02.369Z,14.63
2022-10-23T10:23:22.346Z,14.59
2022-10-23T10:27:11.608Z,14.65
2022-10-23T10:30:19.115Z,14.71
2022-10-23T10:34:21.986Z,14.86
2022-10-23T10:38:01.252Z,14.93
2022-10-23T10:41:09.239Z,15.05
2022-10-23T10:44:29.811Z,15.18
2022-10-23T10:48:09.733Z,15.33
2022-10-23T10:51:34.557Z,15.34
2022-10-23T10:54:58.129Z,15.48
2022-10-23T10:58:06.152Z,15.53
2022-10-23T11:01:27.610Z,15.38
2022-10-23T11:04:40.565Z,15.64
2022-10-23T11:08:01.568Z,15.48
2022-10-23T11:11:37.697Z,15.62
2022-10-23T11:14:42.853Z,15.56
2022-10-23T11:17:50.335Z,15.77
2022-10-23T11:21:29.820Z,16.01
2022-10-23T11:24:40.661Z,16.11
2022-10-23T11:28:12.034Z,16.31
2022-10-23T11:31:26.016Z,16.49
2022-10-23T11:34:43.470Z,16.56
2022-10-23T11:37:45.619Z,16.52
2022-10-23T11:44:05.740Z,16.80
2022-10-23T11:47:40.002Z,16.78
2022-10-23T11:50:45.626Z,17.24
2022-10-23T11:53:48.754Z,17.74
2022-10-23T11:57:14.234Z,17.88
2022-10-23T12:00:23.347Z,18.30
2022-10-23T12:03:51.837Z,18.68
2022-10-23T12:07:01.437Z,19.11
2022-10-23T12:10:07.627Z,19.33
2022-10-23T12:13:43.577Z,19.45
2022-10-23T12:16:46.043Z,19.07
2022-10-23T12:20:10.003Z,19.09
2022-10-23T12:23:30.820Z,19.71
2022-10-23T12:26:51.537Z,19.87
2022-10-23T12:30:23.094Z,19.48
2022-10-23T12:33:28.855Z,19.64
2022-10-23T12:36:51.277Z,19.73
2022-10-23T12:39:55.574Z,20.21
2022-10-23T12:43:00.119Z,20.88
2022-10-23T12:46:27.995Z,20.98
2022-10-23T12:49:33.774Z,20.88
2022-10-23T12:52:39.760Z,20.74
2022-10-23T12:55:50.275Z,20.75
2022-10-23T12:58:56.676Z,20.97
2022-10-23T13:01:59.160Z,20.82
2022-10-23T13:05:05.573Z,20.90
2022-10-23T13:08:11.074Z,20.85
2022-10-23T13:11:19.815Z,21.08
2022-10-23T13:14:34.746Z,20.66
2022-10-23T13:17:44.873Z,20.76
2022-10-23T13:20:51.624Z,20.18
2022-10-23T13:23:55.072Z,19.90
2022-10-23T13:26:58.769Z,19.74
2022-10-23T13:30:03.996Z,19.92
2022-10-23T13:33:26.230Z,19.95
2022-10-23T13:36:31.928Z,19.57
2022-10-23T13:39:34.972Z,19.88
2022-10-23T13:42:37.579Z,19.92
2022-10-23T13:45:41.162Z,19.99
2022-10-23T13:48:44.562Z,20.02
2022-10-23T13:51:53.826Z,19.89
2022-10-23T13:54:56.332Z,19.64
2022-10-23T13:57:58.780Z,19.66
2022-10-23T14:01:01.880Z,19.71
2022-10-23T14:04:06.984Z,19.35
2022-10-23T14:07:09.602Z,19.17
2022-10-23T14:10:12.837Z,19.10
2022-10-23T14:13:16.599Z,19.13
2022-10-23T14:16:23.838Z,19.17
2022-10-23T14:19:26.810Z,19.28
2022-10-23T14:22:29.561Z,19.44
2022-10-23T14:25:33.198Z,19.35
2022-10-23T14:28:36.878Z,19.22
2022-10-23T14:31:40.948Z,18.96
2022-10-23T14:34:46.176Z,18.96
2022-10-23T14:37:48.782Z,19.02
2022-10-23T14:40:52.547Z,18.80
2022-10-23T14:43:55.572Z,18.77
2022-10-23T14:46:59.712Z,18.76
2022-10-23T14:50:02.326Z,18.79
2022-10-23T14:53:08.148Z,18.81
2022-10-23T14:56:11.135Z,18.79
2022-10-23T14:59:15.632Z,18.78
2022-10-23T15:02:21.633Z,18.67
2022-10-23T15:05:25.662Z,18.63
2022-10-23T15:08:29.580Z,18.54
2022-10-23T15:11:33.207Z,18.47
2022-10-23T15:14:35.793Z,18.39
2022-10-23T15:17:39.881Z,18.32
2022-10-23T15:20:51.305Z,18.25
2022-10-23T15:23:54.956Z,18.13
2022-10-23T15:26:57.495Z,18.10
2022-10-23T15:30:01.936Z,18.02
2022-10-23T15:33:05.654Z,17.93
2022-10-23T15:36:09.759Z,17.85
2022-10-23T15:39:15.704Z,17.76
2022-10-23T15:42:19.864Z,17.67
2022-10-23T15:45:25.497Z,17.60
2022-10-23T15:48:30.555Z,17.50
2022-10-23T15:51:33.152Z,17.44
2022-10-23T15:54:36.144Z,17.36
2022-10-23T15:57:42.094Z,17.27
2022-10-23T16:00:46.717Z,17.17
2022-10-23T16:03:50.714Z,17.10
2022-10-23T16:06:53.718Z,17.04
2022-10-23T16:09:56.386Z,16.98
2022-10-23T16:13:00.617Z,16.94
2022-10-23T16:16:04.856Z,16.93
2022-10-23T16:19:07.942Z,16.89
2022-10-23T16:22:11.902Z,16.85
2022-10-23T16:25:15.670Z,16.79
2022-10-23T16:28:19.592Z,16.73
2022-10-23T16:31:25.277Z,16.68
2022-10-23T16:34:28.312Z,16.62
2022-10-23T16:37:31.445Z,16.57
2022-10-23T16:40:36.136Z,16.55
2022-10-23T16:43:41.064Z,16.51
2022-10-23T16:46:45.865Z,16.55
2022-10-23T16:49:49.555Z,16.51
2022-10-23T16:52:55.509Z,16.47
2022-10-23T16:56:01.133Z,16.51
2022-10-23T16:59:04.881Z,16.48
2022-10-23T17:02:12.085Z,16.43
2022-10-23T17:05:18.433Z,16.39
2022-10-23T17:08:23.512Z,16.34
2022-10-23T17:11:33.981Z,16.30
2022-10-23T17:14:41.927Z,16.33
2022-10-23T17:17:46.481Z,16.33
2022-10-23T17:20:57.278Z,16.33
2022-10-23T17:27:12.595Z,16.46
2022-10-23T17:30:15.747Z,16.50
2022-10-23T17:33:19.447Z,16.51
2022-10-23T17:36:23.049Z,16.52
2022-10-23T17:39:29.582Z,16.51
2022-10-23T17:42:32.946Z,16.52
2022-10-23T17:45:36.305Z,16.53
2022-10-23T17:48:42.323Z,16.51
2022-10-23T17:51:45.870Z,16.50
2022-10-23T17:54:52.657Z,16.47
2022-10-23T17:57:58.024Z,16.48
2022-10-23T18:01:09.069Z,16.43
2022-10-23T18:04:13.775Z,16.37
2022-10-23T18:07:18.275Z,16.33
2022-10-23T18:10:21.364Z,16.26
2022-10-23T18:13:24.460Z,16.22
2022-10-23T18:16:30.772Z,16.16
2022-10-23T18:19:34.765Z,16.13
2022-10-23T18:22:38.574Z,16.08
2022-10-23T18:25:43.713Z,16.12
2022-10-23T18:28:49.785Z,16.08
2022-10-23T18:31:52.843Z,16.11
2022-10-23T18:34:56.975Z,16.14
2022-10-23T18:38:00.446Z,16.16
2022-10-23T18:41:04.059Z,16.20
2022-10-23T18:44:08.127Z,16.21
2022-10-23T18:47:11.354Z,16.16
2022-10-23T18:50:15.890Z,16.16
2022-10-23T18:53:21.331Z,16.23
2022-10-23T18:56:27.216Z,16.25
2022-10-23T18:59:31.687Z,16.20
2022-10-23T19:02:37.042Z,16.25
2022-10-23T19:05:44.720Z,16.30
2022-10-23T19:08:49.164Z,16.31
2022-10-23T19:11:52.363Z,16.30
2022-10-23T19:14:56.373Z,16.31
2022-10-23T19:18:00.420Z,16.31
2022-10-23T19:21:06.582Z,16.28
2022-10-23T19:24:16.028Z,16.26
2022-10-23T19:27:20.555Z,16.26
2022-10-23T19:30:25.025Z,16.28
2022-10-23T19:33:28.032Z,16.23
2022-10-23T19:36:33.352Z,16.20
2022-10-23T19:39:40.018Z,16.20
2022-10-23T19:42:44.532Z,16.15
2022-10-23T19:45:48.041Z,16.09
2022-10-23T19:48:51.173Z,16.08
2022-10-23T19:51:55.222Z,16.06
2022-10-23T19:55:02.485Z,16.02
2022-10-23T19:58:06.083Z,15.98
2022-10-23T20:01:15.465Z,15.96
2022-10-23T20:04:19.140Z,15.93
2022-10-23T20:07:22.873Z,15.89
2022-10-23T20:10:26.460Z,15.85
2022-10-23T20:13:29.472Z,15.81
2022-10-23T20:16:36.492Z,15.77
2022-10-23T20:19:39.195Z,15.71
2022-10-23T20:22:44.160Z,15.69
2022-10-23T20:25:47.363Z,15.68
2022-10-23T20:28:53.876Z,15.74
2022-10-23T20:31:57.892Z,15.76
2022-10-23T20:35:01.027Z,15.78
2022-10-23T20:38:04.394Z,15.85
2022-10-23T20:41:07.869Z,15.88
2022-10-23T20:44:13.725Z,15.87
2022-10-23T20:47:16.614Z,15.87
2022-10-23T20:50:19.617Z,15.85
2022-10-23T20:53:22.571Z,15.83
2022-10-23T20:56:33.489Z,15.77
2022-10-23T20:59:35.595Z,15.80
2022-10-23T21:02:37.792Z,15.81
2022-10-23T21:05:39.900Z,15.86
2022-10-23T21:08:42.748Z,15.80
2022-10-23T21:11:44.805Z,15.77
2022-10-23T21:14:46.796Z,15.77
2022-10-23T21:17:50.649Z,15.74
2022-10-23T21:20:54.198Z,15.73
2022-10-23T21:23:59.609Z,15.72
2022-10-23T21:27:01.788Z,15.70
2022-10-23T21:30:06.230Z,15.64
2022-10-23T21:33:08.515Z,15.66
2022-10-23T21:36:17.198Z,15.66
2022-10-23T21:39:19.549Z,15.64
2022-10-23T21:42:21.570Z,15.63
2022-10-23T21:45:24.127Z,15.66
2022-10-23T21:48:26.089Z,15.65
2022-10-23T21:51:31.554Z,15.58
2022-10-23T21:54:33.667Z,15.54
2022-10-23T21:57:35.714Z,15.48
2022-10-23T22:00:37.784Z,15.43
2022-10-23T22:03:39.793Z,15.39
2022-10-23T22:06:43.477Z,15.32
2022-10-23T22:09:45.441Z,15.27
2022-10-23T22:12:47.366Z,15.25
2022-10-23T22:15:49.308Z,15.19
2022-10-23T22:18:51.735Z,15.15
2022-10-23T22:21:54.225Z,15.11
2022-10-23T22:24:56.208Z,15.08
2022-10-23T22:27:58.443Z,15.05
2022-10-23T22:31:01.514Z,15.01
2022-10-23T22:34:18.633Z,14.99
2022-10-23T22:37:28.651Z,15.01
2022-10-23T22:40:30.695Z,15.00
2022-10-23T22:43:32.709Z,14.98
2022-10-23T22:46:34.767Z,15.00
2022-10-23T22:49:38.490Z,15.02
2022-10-23T22:52:40.445Z,15.03
2022-10-23T22:55:43.215Z,15.01
2022-10-23T22:58:46.109Z,15.04
2022-10-23T23:01:49.205Z,14.99
2022-10-23T23:04:51.149Z,14.96
2022-10-23T23:07:53.092Z,14.93
2022-10-23T23:10:56.781Z,14.93
2022-10-23T23:13:59.809Z,14.93
2022-10-23T23:17:02.012Z,14.90
2022-10-23T23:20:04.340Z,14.87
2022-10-23T23:23:06.462Z,14.88
2022-10-23T23:26:08.615Z,14.86
2022-10-23T23:29:10.543Z,14.87
2022-10-23T23:32:12.500Z,14.88
2022-10-23T23:35:14.592Z,14.89
2022-10-23T23:38:16.508Z,14.89
2022-10-23T23:41:20.269Z,14.88
2022-10-23T23:44:22.205Z,14.83
2022-10-23T23:47:24.426Z,14.76
2022-10-23T23:50:28.029Z,14.71
2022-10-23T23:53:30.136Z,14.71
2022-10-23T23:56:32.146Z,14.72
2022-10-23T23:59:41.937Z,14.76
